Station info - map view · info · telemetry · weather · raw · status · beacons · messages · bulletins · browse · moving · my account
Callsign, ship name or locator: Clear       
It is possible to search using wildcards (*?) after a prefix. Example: OH*
APRS station IU2FZW-10 - show graphs
Map loading...
Comment: tinokappa@gmail.com
Mic-E message: In service
Last status: CRLNet Voyager 14.1V 27.4C
Last beacon: CRLNet Voyager v1.05 - http://CRLNet.it
Location: 41°28.03' N 13°45.52' E - locator JN61VL12AC - show map - static map
2.4 miles Northwest bearing 324° from Pignataro Interamna, Provincia di Frosinone, Latium, Italy [?]
4.0 miles West bearing 249° from Cassino, Provincia di Frosinone, Latium, Italy
50.7 miles Northwest bearing 330° from Napoli, Provincia di Napoli, Campania, Italy
72.1 miles Southeast bearing 114° from Roma, Provincia di Roma, Latium, Italy
Last position: 2017-08-16 19:25:34 EDT (10h26m ago)
2017-08-17 01:25:34 CEST local time at Pignataro Interamna, Italy [?]
Altitude: 299 ft
Course: 286°
Speed: 61 MPH
Last path: IU2FZW-10>T1RX03 via WIDE1-1,qAR,IQ0MA-11 (good)
Positions stored: 10390
Packet rate: 103 seconds between packets on average during 5127 seconds.
Other SSIDs: IU2FZW IU2FZW-1 IU2FZW-7
Stations near current position of IU2FZW-10 - show more
callsign distance last heard - EDT      callsign distance last heard - EDT
IQ0MA-112.2 miles 102°2017-08-16 15:09:38 IR0UHX-RP3.1 miles 61°2017-08-17 05:52:12
IK0HKA3.8 miles 112°2017-08-10 18:00:39 IK0HKA DP3.8 miles 112°2017-08-17 05:43:20
IQ0MA4.0 miles 69°2017-07-25 12:59:57 IZ0ANE-54.1 miles 71°2017-07-29 05:07:56
IZ0ANE-134.1 miles 69°2017-08-16 14:20:01 IZ0WPQ-94.2 miles 71°2017-07-19 19:00:46
IZ0WPQ-74.3 miles 70°2017-07-18 13:34:25 IW0EFJ-74.3 miles 70°2017-08-09 15:31:51
IK0BOI-76.1 miles 79°2017-07-30 05:08:48 IZ0CWW-77.5 miles 81°2017-08-15 04:39:44
IZ0BNU-97.8 miles 49°2017-07-27 14:51:40 IU0DLI-79.0 miles 182°2017-07-25 04:26:59
IZ0JHY DP12.1 miles 164°2017-08-15 12:34:01 IK0NWG-Y13.4 miles 26°2017-07-19 09:09:08
IK0NWG B13.5 miles 24°2017-07-27 10:58:53 IK0NWG-B13.5 miles 24°2017-07-27 10:59:03
IW0DNR13.9 miles 183°2017-08-17 05:43:35 IQ0WL14.2 miles 333°2017-08-10 13:54:52
Stations which heard IU2FZW-10 directly on radio –
callsign pkts first heard - EDT last heard longest (tx => rx) longest at - EDT
IZ5CCS 3 2017-08-13 10:45:50 2017-08-13 10:47:08 JN53PR > JN53PS 1.6 miles 48° 2017-08-13 10:45:50
IR2AO 1 2017-08-13 07:56:32 2017-08-13 07:56:32 JN55AP > JN45PM 36.4 miles 256° 2017-08-13 07:56:32
IR4AN 12 2017-08-13 09:12:22 2017-08-13 09:32:42 JN54KV > JN54FK 36.1 miles 210° 2017-08-13 09:12:22
IR0UEI 5 2017-08-13 12:19:42 2017-08-13 12:40:42 JN62HE > JN62HK 17.6 miles 359° 2017-08-13 12:40:42
IR2BQ 11 2017-08-13 08:00:49 2017-08-13 08:19:36 JN55EL > JN55CN 9.9 miles 303° 2017-08-13 08:19:36
IR2BZ 19 2017-08-13 07:50:28 2017-08-13 08:16:36 JN55DL > JN45XO 19.6 miles 293° 2017-08-13 08:16:36
IK0ITC-11 15 2017-08-14 10:00:58 2017-08-14 12:02:37 JN61WL > JN61SQ 20.7 miles 317° 2017-08-14 10:27:41
IZ4UFQ-10 1 2017-08-13 09:46:22 2017-08-13 09:46:22 JN54OL > JN54QL 5.1 miles 94° 2017-08-13 09:46:22
IR2Y 10 2017-08-13 08:15:36 2017-08-13 08:23:36 JN55FK > JN55EK 6.2 miles 249° 2017-08-13 08:23:36
IR4BA 20 2017-08-13 09:48:58 2017-08-13 10:55:07 JN53RQ > JN54NF 40.4 miles 335° 2017-08-13 10:55:07
iw2ejh-11 21 2017-08-13 07:21:26 2017-08-13 07:44:40 JN55AS > JN55AT 3.8 miles 2° 2017-08-13 07:44:40
IR2S 6 2017-08-13 07:59:08 2017-08-13 09:06:55 JN54KX > JN55DQ 55.9 miles 329° 2017-08-13 09:06:55
IR2CV 10 2017-08-13 08:55:33 2017-08-13 09:05:25 JN54KX > JN55JC 7.1 miles 327° 2017-08-13 09:05:25
IR2BW 3 2017-08-13 08:02:27 2017-08-13 08:09:28 JN55BO > JN55DN 8.4 miles 96° 2017-08-13 08:02:27
IR2DD 10 2017-08-13 08:26:37 2017-08-13 08:35:37 JN55JK > JN55GL 11.8 miles 286° 2017-08-13 08:35:37
IR2DF 24 2017-08-13 07:22:10 2017-08-13 07:56:32 JN55BU > JN55AS 8.2 miles 225° 2017-08-13 07:32:11
IR5AS-11 2 2017-08-13 10:26:06 2017-08-13 10:37:32 JN53NT > JN54NC 20.5 miles 360° 2017-08-13 10:37:32
IQ2CY 1 2017-08-13 07:31:59 2017-08-13 07:31:59 JN55BU > JN55AD 47.0 miles 188° 2017-08-13 07:31:59
IZ2UQD-11 4 2017-08-13 07:23:36 2017-08-13 07:35:52 JN55BT > JN55DW 12.0 miles 49° 2017-08-13 07:35:52
IZ0RMH-5 7 2017-08-13 11:34:40 2017-08-13 11:51:00 JN53WC > JN62BW 17.3 miles 134° 2017-08-13 11:34:40
IW5CBL-15 10 2017-08-13 08:41:22 2017-08-13 09:09:23 JN55KJ > JN54BH 84.3 miles 207° 2017-08-13 08:41:22
IQ4SC 23 2017-08-13 09:02:35 2017-08-13 09:40:12 JN55KB > JN54IO 32.1 miles 194° 2017-08-13 09:02:35
IR5UBH-10 7 2017-08-13 11:25:04 2017-08-13 12:16:17 JN62DL > JN52TV 44.2 miles 308° 2017-08-13 12:16:17
IR2BY 16 2017-08-13 07:34:15 2017-08-13 07:56:13 JN55BT > JN55BQ 8.8 miles 192° 2017-08-13 07:34:15
LOVERE 22 2017-08-13 07:21:27 2017-08-13 07:44:41 JN55AS > JN55AT 3.5 miles 8° 2017-08-13 07:44:41
IR2UCL 2 2017-08-13 07:53:16 2017-08-13 07:54:13 JN55BQ > JN45UP 20.7 miles 263° 2017-08-13 07:53:16
IR4UCI-11 15 2017-08-13 09:28:56 2017-08-13 09:46:42 JN54PL > JN54MM 11.7 miles 281° 2017-08-13 09:46:42
IU2GOH 12 2017-08-13 07:58:56 2017-08-13 08:13:36 JN55AP > JN55BL 11.3 miles 167° 2017-08-13 07:58:56
IR0AAA-10 31 2017-08-13 12:41:26 2017-08-13 13:18:38 JN62HE > JN61LV 24.0 miles 137° 2017-08-13 12:41:26
IQ3VO 26 2017-08-13 08:14:36 2017-08-13 09:27:26 JN54KP > JN55MQ 72.0 miles 8° 2017-08-13 09:27:26
IZ5RZS 13 2017-08-13 11:16:12 2017-08-13 11:29:41 JN53VE > JN53VH 9.8 miles 340° 2017-08-13 11:29:41
IQ0MA-11 145 2017-08-13 13:50:25 2017-08-16 19:25:34 JN71AK > JN61VL 10.5 miles 277° 2017-08-15 13:18:31

Only position packets which were originated by the station are shown here. The range statistics show some extra long hops, because some digipeaters do not correctly add themselves to the digipeater path. Please check the raw packets.
About this site
This page shows real-time information collected from the Automatic Position Reporting System Internet network (APRS-IS). APRS is used by amateur (ham) radio operators to transmit real-time position information, weather data, telemetry and messages over the radio. A vehicle equipped with a GPS receiver, a VHF transmitter or HF transceiver and a small computer device called a tracker transmits it's location, speed and course in a small data packet, which is then received by a nearby iGate receiving site which forwards the packet on the Internet. Systems connected to the Internet can send information on the APRS-IS without a radio transmitter, or collect and display information transmitted anywhere in the world.
FAQ · Blog · Discussion group · Linking to aprs.fi · AIS sites · Service status · Database statistics · Advertising on aprs.fi · Technical details · API · Change log · Planned changes · Credits and thanks · Terms Of Service · iPhone/iPad APRS